sensor_id;sensor_type;location;lat;lon;timestamp;P1;durP1;ratioP1;P2;durP2;ratioP2
35550;SDS011;21655;46.056;13.616;2023-05-29T00:01:25;16.60;;;8.88;;
35550;SDS011;21655;46.056;13.616;2023-05-29T00:03:51;14.68;;;8.48;;
35550;SDS011;21655;46.056;13.616;2023-05-29T00:06:17;12.90;;;8.65;;
35550;SDS011;21655;46.056;13.616;2023-05-29T00:08:44;16.17;;;8.90;;
35550;SDS011;21655;46.056;13.616;2023-05-29T00:11:09;20.40;;;8.95;;
35550;SDS011;21655;46.056;13.616;2023-05-29T00:13:35;17.35;;;8.60;;
35550;SDS011;21655;46.056;13.616;2023-05-29T00:16:00;13.02;;;8.30;;
35550;SDS011;21655;46.056;13.616;2023-05-29T00:18:26;14.20;;;8.23;;
35550;SDS011;21655;46.056;13.616;2023-05-29T00:20:52;17.27;;;8.95;;
35550;SDS011;21655;46.056;13.616;2023-05-29T00:23:18;14.73;;;8.30;;
35550;SDS011;21655;46.056;13.616;2023-05-29T00:25:44;17.23;;;8.57;;
35550;SDS011;21655;46.056;13.616;2023-05-29T00:28:09;15.65;;;8.07;;
35550;SDS011;21655;46.056;13.616;2023-05-29T00:30:37;14.43;;;8.77;;
35550;SDS011;21655;46.056;13.616;2023-05-29T00:33:02;14.45;;;8.55;;
35550;SDS011;21655;46.056;13.616;2023-05-29T00:35:27;14.93;;;8.70;;
35550;SDS011;21655;46.056;13.616;2023-05-29T00:37:53;18.45;;;8.88;;
35550;SDS011;21655;46.056;13.616;2023-05-29T00:40:18;15.65;;;8.45;;
35550;SDS011;21655;46.056;13.616;2023-05-29T00:42:44;15.82;;;8.55;;
35550;SDS011;21655;46.056;13.616;2023-05-29T00:45:09;14.15;;;7.72;;
35550;SDS011;21655;46.056;13.616;2023-05-29T00:47:36;15.90;;;9.02;;
35550;SDS011;21655;46.056;13.616;2023-05-29T00:50:02;17.17;;;8.55;;
35550;SDS011;21655;46.056;13.616;2023-05-29T00:52:28;17.25;;;8.75;;
35550;SDS011;21655;46.056;13.616;2023-05-29T00:54:54;16.92;;;8.73;;
35550;SDS011;21655;46.056;13.616;2023-05-29T00:57:20;17.63;;;8.40;;
35550;SDS011;21655;46.056;13.616;2023-05-29T00:59:47;15.65;;;8.55;;
35550;SDS011;21655;46.056;13.616;2023-05-29T01:02:13;15.57;;;9.18;;
35550;SDS011;21655;46.056;13.616;2023-05-29T01:04:41;13.90;;;9.10;;
35550;SDS011;21655;46.056;13.616;2023-05-29T01:07:10;13.68;;;9.50;;
35550;SDS011;21655;46.056;13.616;2023-05-29T01:09:35;15.18;;;8.82;;
35550;SDS011;21655;46.056;13.616;2023-05-29T01:14:40;18.17;;;9.50;;
35550;SDS011;21655;46.056;13.616;2023-05-29T01:17:30;15.05;;;9.27;;
35550;SDS011;21655;46.056;13.616;2023-05-29T01:28:47;13.38;;;8.88;;
35550;SDS011;21655;46.056;13.616;2023-05-29T01:31:16;15.23;;;9.10;;
35550;SDS011;21655;46.056;13.616;2023-05-29T01:33:51;17.55;;;9.32;;
35550;SDS011;21655;46.056;13.616;2023-05-29T01:36:18;12.70;;;8.77;;
35550;SDS011;21655;46.056;13.616;2023-05-29T01:38:43;18.05;;;9.43;;
35550;SDS011;21655;46.056;13.616;2023-05-29T01:41:08;15.98;;;8.95;;
35550;SDS011;21655;46.056;13.616;2023-05-29T01:43:35;18.70;;;9.20;;
35550;SDS011;21655;46.056;13.616;2023-05-29T01:46:00;14.88;;;8.77;;
35550;SDS011;21655;46.056;13.616;2023-05-29T01:48:26;17.83;;;9.48;;
35550;SDS011;21655;46.056;13.616;2023-05-29T01:50:52;17.17;;;8.95;;
35550;SDS011;21655;46.056;13.616;2023-05-29T01:53:20;19.30;;;9.68;;
35550;SDS011;21655;46.056;13.616;2023-05-29T01:55:45;13.63;;;9.02;;
35550;SDS011;21655;46.056;13.616;2023-05-29T01:58:11;20.00;;;10.07;;
35550;SDS011;21655;46.056;13.616;2023-05-29T02:00:39;15.23;;;9.38;;
35550;SDS011;21655;46.056;13.616;2023-05-29T02:03:05;14.93;;;9.38;;
35550;SDS011;21655;46.056;13.616;2023-05-29T02:05:30;15.48;;;8.20;;
35550;SDS011;21655;46.056;13.616;2023-05-29T02:07:56;16.73;;;9.05;;
35550;SDS011;21655;46.056;13.616;2023-05-29T02:10:21;15.80;;;9.15;;
35550;SDS011;21655;46.056;13.616;2023-05-29T02:12:46;15.63;;;8.93;;
35550;SDS011;21655;46.056;13.616;2023-05-29T02:15:12;15.27;;;8.93;;
35550;SDS011;21655;46.056;13.616;2023-05-29T02:17:37;15.30;;;9.02;;
35550;SDS011;21655;46.056;13.616;2023-05-29T02:20:03;13.07;;;8.40;;
35550;SDS011;21655;46.056;13.616;2023-05-29T02:22:29;15.77;;;9.50;;
35550;SDS011;21655;46.056;13.616;2023-05-29T02:24:55;15.75;;;8.32;;
35550;SDS011;21655;46.056;13.616;2023-05-29T02:27:20;16.48;;;9.35;;
35550;SDS011;21655;46.056;13.616;2023-05-29T02:29:45;15.98;;;9.07;;
35550;SDS011;21655;46.056;13.616;2023-05-29T02:32:11;14.18;;;9.55;;
35550;SDS011;21655;46.056;13.616;2023-05-29T02:34:36;16.38;;;8.90;;
35550;SDS011;21655;46.056;13.616;2023-05-29T02:37:02;13.70;;;8.50;;
35550;SDS011;21655;46.056;13.616;2023-05-29T02:39:27;18.65;;;9.05;;
35550;SDS011;21655;46.056;13.616;2023-05-29T02:41:53;15.40;;;9.18;;
35550;SDS011;21655;46.056;13.616;2023-05-29T02:44:20;13.57;;;8.68;;
35550;SDS011;21655;46.056;13.616;2023-05-29T02:46:45;17.25;;;8.80;;
35550;SDS011;21655;46.056;13.616;2023-05-29T02:49:11;16.77;;;8.80;;
35550;SDS011;21655;46.056;13.616;2023-05-29T02:51:36;17.60;;;9.20;;
35550;SDS011;21655;46.056;13.616;2023-05-29T02:54:02;21.50;;;8.75;;
35550;SDS011;21655;46.056;13.616;2023-05-29T02:56:27;16.05;;;8.45;;
35550;SDS011;21655;46.056;13.616;2023-05-29T02:58:53;19.27;;;8.45;;
35550;SDS011;21655;46.056;13.616;2023-05-29T03:01:19;12.65;;;8.05;;
35550;SDS011;21655;46.056;13.616;2023-05-29T03:03:44;16.55;;;8.77;;
35550;SDS011;21655;46.056;13.616;2023-05-29T03:06:10;12.77;;;8.15;;
35550;SDS011;21655;46.056;13.616;2023-05-29T03:08:37;16.58;;;8.25;;
35550;SDS011;21655;46.056;13.616;2023-05-29T03:11:09;13.07;;;7.88;;
35550;SDS011;21655;46.056;13.616;2023-05-29T03:13:36;15.25;;;8.52;;
35550;SDS011;21655;46.056;13.616;2023-05-29T03:16:04;12.63;;;7.95;;
35550;SDS011;21655;46.056;13.616;2023-05-29T03:18:29;18.33;;;9.30;;
35550;SDS011;21655;46.056;13.616;2023-05-29T03:20:55;14.07;;;8.27;;
35550;SDS011;21655;46.056;13.616;2023-05-29T03:23:22;15.32;;;9.10;;
35550;SDS011;21655;46.056;13.616;2023-05-29T03:25:47;16.92;;;8.60;;
35550;SDS011;21655;46.056;13.616;2023-05-29T03:28:13;18.45;;;8.00;;
35550;SDS011;21655;46.056;13.616;2023-05-29T03:30:38;15.77;;;8.63;;
35550;SDS011;21655;46.056;13.616;2023-05-29T03:33:04;17.10;;;8.90;;
35550;SDS011;21655;46.056;13.616;2023-05-29T03:35:29;15.20;;;8.13;;
35550;SDS011;21655;46.056;13.616;2023-05-29T03:37:55;21.58;;;8.07;;
35550;SDS011;21655;46.056;13.616;2023-05-29T03:40:20;16.67;;;8.07;;
35550;SDS011;21655;46.056;13.616;2023-05-29T03:42:46;13.18;;;8.07;;
35550;SDS011;21655;46.056;13.616;2023-05-29T03:45:11;17.10;;;8.60;;
35550;SDS011;21655;46.056;13.616;2023-05-29T03:47:37;16.95;;;9.02;;
35550;SDS011;21655;46.056;13.616;2023-05-29T03:50:02;18.02;;;9.27;;
35550;SDS011;21655;46.056;13.616;2023-05-29T03:52:28;16.90;;;8.70;;
35550;SDS011;21655;46.056;13.616;2023-05-29T03:54:53;11.77;;;8.57;;
35550;SDS011;21655;46.056;13.616;2023-05-29T03:57:19;13.77;;;7.90;;
35550;SDS011;21655;46.056;13.616;2023-05-29T03:59:44;15.10;;;8.52;;
35550;SDS011;21655;46.056;13.616;2023-05-29T04:02:09;17.98;;;8.85;;
35550;SDS011;21655;46.056;13.616;2023-05-29T04:04:35;14.85;;;9.07;;
35550;SDS011;21655;46.056;13.616;2023-05-29T04:07:00;18.88;;;9.10;;
35550;SDS011;21655;46.056;13.616;2023-05-29T04:09:26;18.60;;;8.88;;
35550;SDS011;21655;46.056;13.616;2023-05-29T04:11:51;12.90;;;8.65;;
35550;SDS011;21655;46.056;13.616;2023-05-29T04:14:17;18.23;;;9.02;;
35550;SDS011;21655;46.056;13.616;2023-05-29T04:16:42;12.98;;;7.90;;
35550;SDS011;21655;46.056;13.616;2023-05-29T04:19:08;15.60;;;7.97;;
35550;SDS011;21655;46.056;13.616;2023-05-29T04:21:33;17.02;;;8.35;;
35550;SDS011;21655;46.056;13.616;2023-05-29T04:23:59;16.25;;;8.07;;
35550;SDS011;21655;46.056;13.616;2023-05-29T04:26:25;15.35;;;8.48;;
35550;SDS011;21655;46.056;13.616;2023-05-29T04:28:54;16.40;;;8.68;;
35550;SDS011;21655;46.056;13.616;2023-05-29T04:31:25;13.98;;;8.63;;
35550;SDS011;21655;46.056;13.616;2023-05-29T04:33:51;14.73;;;8.02;;
35550;SDS011;21655;46.056;13.616;2023-05-29T04:36:21;11.82;;;7.97;;
35550;SDS011;21655;46.056;13.616;2023-05-29T04:38:51;18.67;;;8.32;;
35550;SDS011;21655;46.056;13.616;2023-05-29T04:41:19;13.27;;;8.07;;
35550;SDS011;21655;46.056;13.616;2023-05-29T04:43:48;12.30;;;7.28;;
35550;SDS011;21655;46.056;13.616;2023-05-29T04:46:17;17.08;;;7.68;;
35550;SDS011;21655;46.056;13.616;2023-05-29T04:48:42;14.25;;;7.22;;
35550;SDS011;21655;46.056;13.616;2023-05-29T04:51:09;15.57;;;7.22;;
35550;SDS011;21655;46.056;13.616;2023-05-29T04:53:36;16.23;;;7.25;;
35550;SDS011;21655;46.056;13.616;2023-05-29T04:56:07;12.57;;;6.78;;
35550;SDS011;21655;46.056;13.616;2023-05-29T04:58:33;12.40;;;7.05;;
35550;SDS011;21655;46.056;13.616;2023-05-29T05:00:58;14.38;;;7.45;;
35550;SDS011;21655;46.056;13.616;2023-05-29T05:03:24;11.80;;;7.20;;
35550;SDS011;21655;46.056;13.616;2023-05-29T05:05:50;11.80;;;6.55;;
35550;SDS011;21655;46.056;13.616;2023-05-29T05:08:16;10.90;;;6.20;;
35550;SDS011;21655;46.056;13.616;2023-05-29T05:10:42;14.02;;;6.82;;
35550;SDS011;21655;46.056;13.616;2023-05-29T05:13:08;11.85;;;6.22;;
35550;SDS011;21655;46.056;13.616;2023-05-29T05:15:33;14.25;;;6.10;;
35550;SDS011;21655;46.056;13.616;2023-05-29T05:17:59;12.00;;;5.93;;
35550;SDS011;21655;46.056;13.616;2023-05-29T05:20:25;22.35;;;6.38;;
35550;SDS011;21655;46.056;13.616;2023-05-29T05:22:50;11.13;;;6.03;;
35550;SDS011;21655;46.056;13.616;2023-05-29T05:25:16;12.48;;;5.95;;
35550;SDS011;21655;46.056;13.616;2023-05-29T05:27:42;14.77;;;6.18;;
35550;SDS011;21655;46.056;13.616;2023-05-29T05:30:07;13.40;;;5.55;;
35550;SDS011;21655;46.056;13.616;2023-05-29T05:32:33;10.38;;;6.10;;
35550;SDS011;21655;46.056;13.616;2023-05-29T05:34:59;11.40;;;6.13;;
35550;SDS011;21655;46.056;13.616;2023-05-29T05:37:25;11.02;;;5.40;;
35550;SDS011;21655;46.056;13.616;2023-05-29T05:39:50;11.30;;;5.72;;
35550;SDS011;21655;46.056;13.616;2023-05-29T05:42:16;12.70;;;5.57;;
35550;SDS011;21655;46.056;13.616;2023-05-29T05:44:41;10.27;;;5.32;;
35550;SDS011;21655;46.056;13.616;2023-05-29T05:47:06;9.82;;;5.40;;
35550;SDS011;21655;46.056;13.616;2023-05-29T05:49:32;9.07;;;5.38;;
35550;SDS011;21655;46.056;13.616;2023-05-29T05:51:58;19.65;;;5.85;;
35550;SDS011;21655;46.056;13.616;2023-05-29T05:54:23;13.73;;;5.63;;
35550;SDS011;21655;46.056;13.616;2023-05-29T05:56:49;14.98;;;5.20;;
35550;SDS011;21655;46.056;13.616;2023-05-29T05:59:14;14.30;;;5.60;;
35550;SDS011;21655;46.056;13.616;2023-05-29T06:01:40;8.93;;;5.32;;
35550;SDS011;21655;46.056;13.616;2023-05-29T06:04:06;10.63;;;5.30;;
35550;SDS011;21655;46.056;13.616;2023-05-29T06:06:32;12.63;;;5.68;;
35550;SDS011;21655;46.056;13.616;2023-05-29T06:08:57;13.13;;;5.28;;
35550;SDS011;21655;46.056;13.616;2023-05-29T06:11:23;11.95;;;5.35;;
35550;SDS011;21655;46.056;13.616;2023-05-29T06:13:50;15.20;;;5.28;;
35550;SDS011;21655;46.056;13.616;2023-05-29T06:16:16;7.97;;;5.15;;
35550;SDS011;21655;46.056;13.616;2023-05-29T06:18:43;17.65;;;5.80;;
35550;SDS011;21655;46.056;13.616;2023-05-29T06:21:09;13.30;;;5.40;;
35550;SDS011;21655;46.056;13.616;2023-05-29T06:23:35;11.32;;;5.03;;
35550;SDS011;21655;46.056;13.616;2023-05-29T06:26:01;11.38;;;5.18;;
35550;SDS011;21655;46.056;13.616;2023-05-29T06:28:28;10.13;;;5.15;;
35550;SDS011;21655;46.056;13.616;2023-05-29T06:30:54;8.77;;;4.70;;
35550;SDS011;21655;46.056;13.616;2023-05-29T06:33:19;9.00;;;5.15;;
35550;SDS011;21655;46.056;13.616;2023-05-29T06:35:46;10.40;;;4.93;;
35550;SDS011;21655;46.056;13.616;2023-05-29T06:38:12;9.05;;;4.53;;
35550;SDS011;21655;46.056;13.616;2023-05-29T06:40:38;10.98;;;5.03;;
35550;SDS011;21655;46.056;13.616;2023-05-29T06:43:04;11.95;;;5.07;;
35550;SDS011;21655;46.056;13.616;2023-05-29T06:45:29;9.48;;;5.13;;
35550;SDS011;21655;46.056;13.616;2023-05-29T06:47:55;7.80;;;4.82;;
35550;SDS011;21655;46.056;13.616;2023-05-29T06:50:21;9.30;;;4.97;;
35550;SDS011;21655;46.056;13.616;2023-05-29T06:52:46;11.63;;;5.10;;
35550;SDS011;21655;46.056;13.616;2023-05-29T06:55:12;10.52;;;4.78;;
35550;SDS011;21655;46.056;13.616;2023-05-29T06:57:37;14.73;;;5.20;;
35550;SDS011;21655;46.056;13.616;2023-05-29T07:00:03;9.70;;;4.90;;
35550;SDS011;21655;46.056;13.616;2023-05-29T07:02:31;12.75;;;4.88;;
35550;SDS011;21655;46.056;13.616;2023-05-29T07:04:56;14.90;;;5.00;;
35550;SDS011;21655;46.056;13.616;2023-05-29T07:07:22;16.42;;;5.22;;
35550;SDS011;21655;46.056;13.616;2023-05-29T07:09:47;9.13;;;4.78;;
35550;SDS011;21655;46.056;13.616;2023-05-29T07:12:13;8.05;;;4.43;;
35550;SDS011;21655;46.056;13.616;2023-05-29T07:14:38;14.18;;;5.13;;
35550;SDS011;21655;46.056;13.616;2023-05-29T07:17:03;10.45;;;4.88;;
35550;SDS011;21655;46.056;13.616;2023-05-29T07:19:30;14.65;;;4.97;;
35550;SDS011;21655;46.056;13.616;2023-05-29T07:21:57;15.40;;;5.00;;
35550;SDS011;21655;46.056;13.616;2023-05-29T07:24:22;16.65;;;5.05;;
35550;SDS011;21655;46.056;13.616;2023-05-29T07:26:48;16.65;;;4.90;;
35550;SDS011;21655;46.056;13.616;2023-05-29T07:29:14;14.60;;;4.88;;
35550;SDS011;21655;46.056;13.616;2023-05-29T07:31:41;14.25;;;5.03;;
35550;SDS011;21655;46.056;13.616;2023-05-29T07:34:07;14.68;;;5.20;;
35550;SDS011;21655;46.056;13.616;2023-05-29T07:36:32;27.65;;;6.18;;
35550;SDS011;21655;46.056;13.616;2023-05-29T07:38:58;13.52;;;5.53;;
35550;SDS011;21655;46.056;13.616;2023-05-29T07:41:23;18.27;;;5.15;;
35550;SDS011;21655;46.056;13.616;2023-05-29T07:43:49;8.95;;;4.50;;
35550;SDS011;21655;46.056;13.616;2023-05-29T07:46:17;7.82;;;4.47;;
35550;SDS011;21655;46.056;13.616;2023-05-29T07:48:43;8.45;;;4.40;;
35550;SDS011;21655;46.056;13.616;2023-05-29T07:51:10;10.00;;;4.50;;
35550;SDS011;21655;46.056;13.616;2023-05-29T07:53:36;12.27;;;5.03;;
35550;SDS011;21655;46.056;13.616;2023-05-29T07:56:01;8.45;;;4.57;;
35550;SDS011;21655;46.056;13.616;2023-05-29T07:58:27;7.20;;;4.53;;
35550;SDS011;21655;46.056;13.616;2023-05-29T08:00:53;7.28;;;4.22;;
35550;SDS011;21655;46.056;13.616;2023-05-29T08:03:18;11.00;;;4.25;;
35550;SDS011;21655;46.056;13.616;2023-05-29T08:05:44;7.15;;;4.22;;
35550;SDS011;21655;46.056;13.616;2023-05-29T08:08:09;8.75;;;4.90;;
35550;SDS011;21655;46.056;13.616;2023-05-29T08:10:37;7.88;;;4.20;;
35550;SDS011;21655;46.056;13.616;2023-05-29T08:13:03;9.82;;;4.68;;
35550;SDS011;21655;46.056;13.616;2023-05-29T08:15:29;8.40;;;4.45;;
35550;SDS011;21655;46.056;13.616;2023-05-29T08:17:54;7.05;;;4.43;;
35550;SDS011;21655;46.056;13.616;2023-05-29T08:20:20;9.82;;;4.47;;
35550;SDS011;21655;46.056;13.616;2023-05-29T08:22:45;7.25;;;4.38;;
35550;SDS011;21655;46.056;13.616;2023-05-29T08:25:11;9.88;;;4.20;;
35550;SDS011;21655;46.056;13.616;2023-05-29T08:27:37;9.55;;;3.83;;
35550;SDS011;21655;46.056;13.616;2023-05-29T08:30:03;9.48;;;4.28;;
35550;SDS011;21655;46.056;13.616;2023-05-29T08:32:28;11.55;;;4.82;;
35550;SDS011;21655;46.056;13.616;2023-05-29T08:34:54;11.30;;;4.13;;
35550;SDS011;21655;46.056;13.616;2023-05-29T08:37:20;9.68;;;4.20;;
35550;SDS011;21655;46.056;13.616;2023-05-29T08:39:45;9.48;;;4.28;;
35550;SDS011;21655;46.056;13.616;2023-05-29T08:42:17;6.72;;;4.10;;
35550;SDS011;21655;46.056;13.616;2023-05-29T08:44:55;8.20;;;4.40;;
35550;SDS011;21655;46.056;13.616;2023-05-29T08:47:22;7.22;;;4.38;;
35550;SDS011;21655;46.056;13.616;2023-05-29T08:49:52;10.10;;;4.53;;
35550;SDS011;21655;46.056;13.616;2023-05-29T08:52:19;8.13;;;4.55;;
35550;SDS011;21655;46.056;13.616;2023-05-29T08:54:47;9.85;;;4.32;;
35550;SDS011;21655;46.056;13.616;2023-05-29T08:57:13;8.38;;;4.15;;
35550;SDS011;21655;46.056;13.616;2023-05-29T08:59:42;7.47;;;4.22;;
35550;SDS011;21655;46.056;13.616;2023-05-29T09:02:10;7.65;;;4.10;;
35550;SDS011;21655;46.056;13.616;2023-05-29T09:04:42;10.43;;;4.35;;
35550;SDS011;21655;46.056;13.616;2023-05-29T09:07:14;9.93;;;4.90;;
35550;SDS011;21655;46.056;13.616;2023-05-29T09:09:43;7.15;;;3.90;;
35550;SDS011;21655;46.056;13.616;2023-05-29T09:12:13;13.68;;;4.25;;
35550;SDS011;21655;46.056;13.616;2023-05-29T09:14:42;7.75;;;3.90;;
35550;SDS011;21655;46.056;13.616;2023-05-29T09:17:09;10.32;;;4.88;;
35550;SDS011;21655;46.056;13.616;2023-05-29T09:19:36;9.73;;;4.20;;
35550;SDS011;21655;46.056;13.616;2023-05-29T09:22:07;10.65;;;4.97;;
35550;SDS011;21655;46.056;13.616;2023-05-29T09:24:35;13.57;;;4.97;;
35550;SDS011;21655;46.056;13.616;2023-05-29T09:27:03;9.27;;;4.28;;
35550;SDS011;21655;46.056;13.616;2023-05-29T09:29:40;10.45;;;4.82;;
35550;SDS011;21655;46.056;13.616;2023-05-29T09:32:17;9.23;;;3.90;;
35550;SDS011;21655;46.056;13.616;2023-05-29T09:34:43;8.75;;;4.18;;
35550;SDS011;21655;46.056;13.616;2023-05-29T09:37:09;11.63;;;5.13;;
35550;SDS011;21655;46.056;13.616;2023-05-29T09:39:48;6.85;;;4.20;;
35550;SDS011;21655;46.056;13.616;2023-05-29T09:42:16;6.80;;;3.95;;
35550;SDS011;21655;46.056;13.616;2023-05-29T09:44:43;10.15;;;4.82;;
35550;SDS011;21655;46.056;13.616;2023-05-29T09:47:14;8.52;;;4.63;;
35550;SDS011;21655;46.056;13.616;2023-05-29T09:49:42;6.38;;;4.28;;
35550;SDS011;21655;46.056;13.616;2023-05-29T09:52:10;12.10;;;4.32;;
35550;SDS011;21655;46.056;13.616;2023-05-29T09:54:39;7.82;;;4.43;;
35550;SDS011;21655;46.056;13.616;2023-05-29T09:57:06;11.15;;;4.40;;
35550;SDS011;21655;46.056;13.616;2023-05-29T09:59:34;7.40;;;4.15;;
35550;SDS011;21655;46.056;13.616;2023-05-29T10:02:02;9.30;;;4.20;;
35550;SDS011;21655;46.056;13.616;2023-05-29T10:04:32;8.13;;;4.57;;
35550;SDS011;21655;46.056;13.616;2023-05-29T10:07:04;9.05;;;4.53;;
35550;SDS011;21655;46.056;13.616;2023-05-29T10:09:35;9.18;;;4.45;;
35550;SDS011;21655;46.056;13.616;2023-05-29T10:12:06;6.15;;;3.58;;
35550;SDS011;21655;46.056;13.616;2023-05-29T10:14:33;10.30;;;4.53;;
35550;SDS011;21655;46.056;13.616;2023-05-29T10:17:01;8.68;;;4.28;;
35550;SDS011;21655;46.056;13.616;2023-05-29T10:19:30;13.05;;;4.50;;
35550;SDS011;21655;46.056;13.616;2023-05-29T10:21:57;10.35;;;4.70;;
35550;SDS011;21655;46.056;13.616;2023-05-29T10:24:26;7.07;;;4.28;;
35550;SDS011;21655;46.056;13.616;2023-05-29T10:26:53;12.82;;;4.60;;
35550;SDS011;21655;46.056;13.616;2023-05-29T10:37:56;7.50;;;4.47;;
35550;SDS011;21655;46.056;13.616;2023-05-29T10:40:27;9.80;;;4.57;;
35550;SDS011;21655;46.056;13.616;2023-05-29T10:42:53;7.63;;;4.40;;
35550;SDS011;21655;46.056;13.616;2023-05-29T10:47:53;10.15;;;5.10;;
35550;SDS011;21655;46.056;13.616;2023-05-29T10:50:34;8.55;;;4.50;;
35550;SDS011;21655;46.056;13.616;2023-05-29T10:53:10;8.77;;;4.78;;
35550;SDS011;21655;46.056;13.616;2023-05-29T10:55:40;9.23;;;4.53;;
35550;SDS011;21655;46.056;13.616;2023-05-29T11:00:32;9.60;;;4.72;;
35550;SDS011;21655;46.056;13.616;2023-05-29T11:03:01;10.73;;;5.03;;
35550;SDS011;21655;46.056;13.616;2023-05-29T11:05:31;11.55;;;4.93;;
35550;SDS011;21655;46.056;13.616;2023-05-29T11:07:58;10.65;;;4.88;;
35550;SDS011;21655;46.056;13.616;2023-05-29T11:13:24;13.40;;;5.47;;
35550;SDS011;21655;46.056;13.616;2023-05-29T11:16:19;9.63;;;4.70;;
35550;SDS011;21655;46.056;13.616;2023-05-29T11:18:45;9.00;;;4.80;;
35550;SDS011;21655;46.056;13.616;2023-05-29T11:23:52;8.02;;;4.78;;
35550;SDS011;21655;46.056;13.616;2023-05-29T11:26:22;10.30;;;5.20;;
35550;SDS011;21655;46.056;13.616;2023-05-29T11:28:49;11.15;;;5.10;;
35550;SDS011;21655;46.056;13.616;2023-05-29T11:31:15;8.98;;;4.88;;
35550;SDS011;21655;46.056;13.616;2023-05-29T11:33:47;9.10;;;4.82;;
35550;SDS011;21655;46.056;13.616;2023-05-29T11:36:14;12.03;;;5.67;;
35550;SDS011;21655;46.056;13.616;2023-05-29T11:38:41;13.18;;;5.40;;
35550;SDS011;21655;46.056;13.616;2023-05-29T11:41:07;9.48;;;4.57;;
35550;SDS011;21655;46.056;13.616;2023-05-29T11:43:34;9.10;;;5.03;;
35550;SDS011;21655;46.056;13.616;2023-05-29T11:45:59;10.88;;;5.03;;
35550;SDS011;21655;46.056;13.616;2023-05-29T11:48:25;11.65;;;5.53;;
35550;SDS011;21655;46.056;13.616;2023-05-29T11:50:50;9.38;;;5.05;;
35550;SDS011;21655;46.056;13.616;2023-05-29T11:53:16;9.52;;;4.72;;
35550;SDS011;21655;46.056;13.616;2023-05-29T11:55:41;8.52;;;5.00;;
35550;SDS011;21655;46.056;13.616;2023-05-29T11:58:07;12.63;;;5.10;;
35550;SDS011;21655;46.056;13.616;2023-05-29T12:00:34;9.63;;;5.38;;
35550;SDS011;21655;46.056;13.616;2023-05-29T12:03:01;10.55;;;5.10;;
35550;SDS011;21655;46.056;13.616;2023-05-29T12:05:28;9.05;;;4.32;;
35550;SDS011;21655;46.056;13.616;2023-05-29T12:08:23;11.00;;;5.13;;
35550;SDS011;21655;46.056;13.616;2023-05-29T12:10:51;11.35;;;4.90;;
35550;SDS011;21655;46.056;13.616;2023-05-29T12:13:18;12.70;;;4.97;;
35550;SDS011;21655;46.056;13.616;2023-05-29T12:15:45;10.40;;;5.00;;
35550;SDS011;21655;46.056;13.616;2023-05-29T12:18:13;11.43;;;5.07;;
35550;SDS011;21655;46.056;13.616;2023-05-29T12:20:38;13.93;;;6.13;;
35550;SDS011;21655;46.056;13.616;2023-05-29T12:23:04;10.95;;;4.90;;
35550;SDS011;21655;46.056;13.616;2023-05-29T12:25:30;11.10;;;5.57;;
35550;SDS011;21655;46.056;13.616;2023-05-29T12:27:56;8.77;;;4.95;;
35550;SDS011;21655;46.056;13.616;2023-05-29T12:30:23;7.05;;;4.22;;
35550;SDS011;21655;46.056;13.616;2023-05-29T12:32:50;14.38;;;5.30;;
35550;SDS011;21655;46.056;13.616;2023-05-29T12:35:25;7.90;;;4.82;;
35550;SDS011;21655;46.056;13.616;2023-05-29T12:37:56;7.57;;;4.43;;
35550;SDS011;21655;46.056;13.616;2023-05-29T12:40:32;7.57;;;4.72;;
35550;SDS011;21655;46.056;13.616;2023-05-29T12:43:05;9.80;;;5.53;;
35550;SDS011;21655;46.056;13.616;2023-05-29T12:45:34;10.55;;;4.88;;
35550;SDS011;21655;46.056;13.616;2023-05-29T12:48:00;11.02;;;5.25;;
35550;SDS011;21655;46.056;13.616;2023-05-29T12:50:34;9.50;;;5.00;;
35550;SDS011;21655;46.056;13.616;2023-05-29T12:55:29;9.63;;;5.20;;
35550;SDS011;21655;46.056;13.616;2023-05-29T12:57:58;9.07;;;5.25;;
35550;SDS011;21655;46.056;13.616;2023-05-29T13:00:24;8.43;;;4.80;;
35550;SDS011;21655;46.056;13.616;2023-05-29T13:02:50;11.23;;;5.00;;
35550;SDS011;21655;46.056;13.616;2023-05-29T13:05:16;7.30;;;4.53;;
35550;SDS011;21655;46.056;13.616;2023-05-29T13:07:44;7.05;;;4.47;;
35550;SDS011;21655;46.056;13.616;2023-05-29T13:10:12;10.82;;;4.88;;
35550;SDS011;21655;46.056;13.616;2023-05-29T13:12:39;12.82;;;5.13;;
35550;SDS011;21655;46.056;13.616;2023-05-29T13:15:05;10.05;;;4.80;;
35550;SDS011;21655;46.056;13.616;2023-05-29T13:17:31;12.27;;;4.30;;
35550;SDS011;21655;46.056;13.616;2023-05-29T13:19:57;10.18;;;4.70;;
35550;SDS011;21655;46.056;13.616;2023-05-29T13:22:22;7.65;;;4.97;;
35550;SDS011;21655;46.056;13.616;2023-05-29T13:24:48;9.18;;;5.60;;
35550;SDS011;21655;46.056;13.616;2023-05-29T13:27:13;10.23;;;4.75;;
35550;SDS011;21655;46.056;13.616;2023-05-29T13:29:41;8.68;;;5.20;;
35550;SDS011;21655;46.056;13.616;2023-05-29T13:32:07;10.02;;;4.53;;
35550;SDS011;21655;46.056;13.616;2023-05-29T13:34:33;9.80;;;5.60;;
35550;SDS011;21655;46.056;13.616;2023-05-29T13:36:58;9.10;;;4.78;;
35550;SDS011;21655;46.056;13.616;2023-05-29T13:39:25;7.22;;;4.68;;
35550;SDS011;21655;46.056;13.616;2023-05-29T13:41:51;10.93;;;4.63;;
35550;SDS011;21655;46.056;13.616;2023-05-29T13:44:16;9.40;;;4.55;;
35550;SDS011;21655;46.056;13.616;2023-05-29T13:46:41;8.48;;;4.90;;
35550;SDS011;21655;46.056;13.616;2023-05-29T13:49:07;9.52;;;5.28;;
35550;SDS011;21655;46.056;13.616;2023-05-29T13:51:33;10.85;;;5.70;;
35550;SDS011;21655;46.056;13.616;2023-05-29T13:54:00;9.00;;;4.80;;
35550;SDS011;21655;46.056;13.616;2023-05-29T13:56:26;10.35;;;5.85;;
35550;SDS011;21655;46.056;13.616;2023-05-29T13:58:52;9.30;;;4.60;;
35550;SDS011;21655;46.056;13.616;2023-05-29T14:01:18;11.55;;;5.53;;
35550;SDS011;21655;46.056;13.616;2023-05-29T14:03:49;11.60;;;5.43;;
35550;SDS011;21655;46.056;13.616;2023-05-29T14:06:14;11.63;;;4.78;;
35550;SDS011;21655;46.056;13.616;2023-05-29T14:08:40;7.97;;;4.65;;
35550;SDS011;21655;46.056;13.616;2023-05-29T14:11:05;9.70;;;5.32;;
35550;SDS011;21655;46.056;13.616;2023-05-29T14:13:31;9.60;;;5.05;;
35550;SDS011;21655;46.056;13.616;2023-05-29T14:15:56;7.72;;;4.60;;
35550;SDS011;21655;46.056;13.616;2023-05-29T14:18:22;7.82;;;5.03;;
35550;SDS011;21655;46.056;13.616;2023-05-29T14:20:48;11.48;;;5.30;;
35550;SDS011;21655;46.056;13.616;2023-05-29T14:23:18;8.25;;;5.30;;
35550;SDS011;21655;46.056;13.616;2023-05-29T14:25:44;9.70;;;5.00;;
35550;SDS011;21655;46.056;13.616;2023-05-29T14:28:10;9.25;;;5.10;;
35550;SDS011;21655;46.056;13.616;2023-05-29T14:30:36;10.00;;;4.90;;
35550;SDS011;21655;46.056;13.616;2023-05-29T14:33:02;10.23;;;4.50;;
35550;SDS011;21655;46.056;13.616;2023-05-29T14:35:28;14.52;;;5.50;;
35550;SDS011;21655;46.056;13.616;2023-05-29T14:37:54;11.20;;;5.50;;
35550;SDS011;21655;46.056;13.616;2023-05-29T14:40:20;11.55;;;5.70;;
35550;SDS011;21655;46.056;13.616;2023-05-29T14:42:45;10.77;;;5.05;;
35550;SDS011;21655;46.056;13.616;2023-05-29T14:45:10;8.80;;;4.90;;
35550;SDS011;21655;46.056;13.616;2023-05-29T14:47:36;10.38;;;5.22;;
35550;SDS011;21655;46.056;13.616;2023-05-29T14:50:02;11.85;;;4.93;;
35550;SDS011;21655;46.056;13.616;2023-05-29T14:52:28;8.85;;;5.22;;
35550;SDS011;21655;46.056;13.616;2023-05-29T14:54:53;9.85;;;5.10;;
35550;SDS011;21655;46.056;13.616;2023-05-29T14:57:19;10.30;;;5.78;;